createdAt,value
2022-10-17T00:08:58.105Z,55.90
2022-10-17T00:24:01.369Z,39.90
2022-10-17T00:39:04.534Z,57.00
2022-10-17T00:54:09.968Z,52.90
2022-10-17T01:09:13.368Z,84.50
2022-10-17T01:24:47.457Z,65.10
2022-10-17T01:40:10.821Z,56.90
2022-10-17T01:55:20.923Z,46.40
2022-10-17T02:10:36.320Z,35.20
2022-10-17T02:25:48.601Z,48.60
2022-10-17T02:40:53.288Z,91.80
2022-10-17T02:56:05.384Z,97.30
2022-10-17T03:11:09.045Z,100.50
2022-10-17T03:26:12.161Z,89.60
2022-10-17T03:41:15.594Z,68.30
2022-10-17T03:56:24.859Z,89.80
2022-10-17T04:11:42.562Z,109.70
2022-10-17T04:26:46.284Z,72.00
2022-10-17T04:41:50.097Z,68.10
2022-10-17T04:56:53.961Z,59.50
2022-10-17T05:11:57.997Z,69.90
2022-10-17T05:27:01.787Z,170.00
2022-10-17T05:42:05.115Z,100.30
2022-10-17T05:57:09.416Z,90.80
2022-10-17T06:12:13.511Z,136.00
2022-10-17T06:27:18.191Z,112.80
2022-10-17T06:42:22.110Z,76.20
2022-10-17T06:57:45.961Z,109.10
2022-10-17T07:13:08.739Z,143.10
2022-10-17T07:28:15.344Z,99.40
2022-10-17T07:43:18.807Z,86.40
2022-10-17T07:58:22.598Z,76.50
2022-10-17T08:13:25.948Z,57.90
2022-10-17T08:28:29.690Z,17.90
2022-10-17T08:44:17.546Z,24.30
2022-10-17T08:59:26.969Z,16.80
2022-10-17T09:14:45.081Z,14.80
2022-10-17T09:29:51.340Z,14.20
2022-10-17T09:45:26.387Z,14.70
2022-10-17T10:00:31.034Z,17.40
2022-10-17T10:15:39.619Z,15.80
2022-10-17T10:45:52.320Z,21.20
2022-10-17T11:09:57.803Z,21.70
2022-10-17T11:25:08.664Z,16.20
2022-10-17T11:40:21.922Z,15.40
2022-10-17T11:55:30.123Z,18.60
2022-10-17T12:10:43.146Z,22.40
2022-10-17T12:25:59.634Z,22.10
2022-10-17T12:41:08.331Z,17.70
2022-10-17T12:56:46.190Z,25.70
2022-10-17T13:11:50.825Z,21.80
2022-10-17T13:26:54.637Z,20.90
2022-10-17T13:41:58.665Z,18.50
2022-10-17T13:57:05.039Z,16.60
2022-10-17T14:12:16.984Z,27.40
2022-10-17T14:27:35.541Z,21.30
2022-10-17T14:42:40.768Z,24.00
2022-10-17T14:57:46.263Z,22.20
2022-10-17T15:12:58.898Z,47.30
2022-10-17T15:28:12.195Z,25.80
2022-10-17T15:43:19.678Z,30.00
2022-10-17T15:58:23.193Z,39.00
2022-10-17T16:13:26.216Z,39.50
2022-10-17T16:28:29.885Z,38.30
2022-10-17T16:43:36.707Z,41.60
2022-10-17T16:58:41.116Z,36.50
2022-10-17T17:13:44.540Z,47.40
2022-10-17T17:28:49.883Z,40.60
2022-10-17T17:43:53.810Z,41.80
2022-10-17T17:59:00.303Z,40.00
2022-10-17T18:14:07.364Z,41.80
2022-10-17T18:29:13.509Z,43.70
2022-10-17T18:44:17.745Z,42.90
2022-10-17T18:59:25.030Z,37.20
2022-10-17T19:14:30.701Z,38.90
2022-10-17T19:29:34.696Z,41.00
2022-10-17T19:44:38.312Z,35.60
2022-10-17T19:59:41.323Z,41.70
2022-10-17T20:14:44.635Z,37.70
2022-10-17T20:29:48.044Z,38.30
2022-10-17T20:44:51.174Z,33.50
2022-10-17T20:59:54.197Z,35.30
2022-10-17T21:14:57.934Z,36.20
2022-10-17T21:30:01.267Z,36.60
2022-10-17T21:45:10.605Z,35.30
2022-10-17T22:00:19.488Z,42.10
2022-10-17T22:15:22.817Z,47.80
2022-10-17T22:30:26.086Z,36.20
2022-10-17T22:45:29.184Z,42.20
2022-10-17T23:00:32.119Z,41.00
2022-10-17T23:15:35.504Z,44.30
2022-10-17T23:30:39.463Z,45.30
2022-10-17T23:45:42.689Z,37.50
